createdAt,value
2022-08-18T00:01:34.564Z,25.00
2022-08-18T00:06:41.770Z,25.05
2022-08-18T00:11:47.381Z,25.07
2022-08-18T00:16:54.873Z,25.08
2022-08-18T00:22:00.828Z,25.05
2022-08-18T00:27:07.582Z,25.05
2022-08-18T00:32:15.226Z,25.05
2022-08-18T00:37:21.196Z,25.03
2022-08-18T00:42:30.662Z,24.99
2022-08-18T00:47:42.507Z,24.95
2022-08-18T00:52:49.823Z,24.90
2022-08-18T00:57:58.634Z,24.87
2022-08-18T01:03:07.145Z,24.83
2022-08-18T01:08:15.358Z,24.81
2022-08-18T01:13:22.782Z,24.79
2022-08-18T01:18:46.168Z,24.74
2022-08-18T01:23:54.501Z,24.74
2022-08-18T01:29:18.626Z,24.68
2022-08-18T01:34:20.983Z,24.68
2022-08-18T01:41:21.055Z,24.63
2022-08-18T01:44:34.596Z,24.62
2022-08-18T01:49:43.942Z,24.57
2022-08-18T01:54:50.721Z,24.50
2022-08-18T01:59:56.386Z,24.43
2022-08-18T02:05:04.923Z,24.41
2022-08-18T02:10:16.313Z,24.37
2022-08-18T02:15:20.864Z,24.36
2022-08-18T02:20:26.966Z,24.32
2022-08-18T02:25:32.607Z,24.33
2022-08-18T02:30:39.090Z,24.37
2022-08-18T02:35:46.499Z,24.42
2022-08-18T02:41:04.138Z,24.46
2022-08-18T02:46:10.138Z,24.53
2022-08-18T02:51:18.421Z,24.58
2022-08-18T02:56:32.733Z,24.60
2022-08-18T03:01:38.606Z,24.60
2022-08-18T03:06:46.047Z,24.61
2022-08-18T03:11:53.095Z,24.65
2022-08-18T03:17:00.097Z,24.62
2022-08-18T03:22:24.300Z,24.60
2022-08-18T03:27:14.715Z,24.53
2022-08-18T03:32:20.303Z,24.51
2022-08-18T03:37:25.836Z,24.54
2022-08-18T03:42:31.295Z,24.50
2022-08-18T03:47:36.871Z,24.45
2022-08-18T03:52:42.445Z,24.42
2022-08-18T03:57:48.847Z,24.40
2022-08-18T04:02:54.378Z,24.35
2022-08-18T04:08:00.125Z,24.34
2022-08-18T04:13:05.927Z,24.36
2022-08-18T04:18:12.323Z,24.37
2022-08-18T04:23:18.066Z,24.37
2022-08-18T04:28:23.631Z,24.35
2022-08-18T04:33:30.123Z,24.40
2022-08-18T04:38:35.682Z,24.40
2022-08-18T04:43:42.432Z,24.47
2022-08-18T04:48:47.936Z,24.49
2022-08-18T04:53:54.321Z,24.49
2022-08-18T04:59:03.166Z,24.62
2022-08-18T05:04:10.230Z,24.70
2022-08-18T05:09:23.145Z,24.83
2022-08-18T05:14:24.471Z,24.88
2022-08-18T05:19:31.064Z,25.01
2022-08-18T05:24:39.900Z,25.12
2022-08-18T05:29:46.317Z,25.18
2022-08-18T05:34:52.051Z,25.09
2022-08-18T05:40:11.442Z,25.24
2022-08-18T05:45:18.266Z,25.36
2022-08-18T05:50:24.073Z,25.56
2022-08-18T05:55:56.603Z,25.75
2022-08-18T06:01:05.051Z,25.86
2022-08-18T06:06:14.340Z,26.02
2022-08-18T06:11:22.857Z,26.14
2022-08-18T06:16:41.695Z,26.28
2022-08-18T06:21:54.758Z,26.39
2022-08-18T06:27:12.284Z,26.49
2022-08-18T06:32:39.147Z,26.62
2022-08-18T06:38:08.571Z,26.78
2022-08-18T06:43:17.433Z,26.99
2022-08-18T06:48:28.911Z,27.20
2022-08-18T06:53:55.783Z,27.47
2022-08-18T06:59:19.566Z,27.68
2022-08-18T07:04:40.648Z,27.87
2022-08-18T07:09:46.468Z,27.92
2022-08-18T07:15:01.452Z,27.99
2022-08-18T07:20:13.386Z,28.17
2022-08-18T07:25:24.770Z,28.35
2022-08-18T07:30:33.846Z,28.28
2022-08-18T07:35:49.343Z,28.35
2022-08-18T07:41:03.907Z,28.46
2022-08-18T07:46:12.522Z,28.58
2022-08-18T07:51:40.917Z,28.59
2022-08-18T07:57:07.787Z,28.53
2022-08-18T08:02:54.994Z,28.66
2022-08-18T08:08:01.679Z,28.67
2022-08-18T08:13:53.990Z,28.56
2022-08-18T08:19:01.796Z,28.85
2022-08-18T08:24:19.955Z,29.07
2022-08-18T08:29:32.146Z,29.20
2022-08-18T08:34:40.817Z,29.25
2022-08-18T08:39:57.473Z,29.24
2022-08-18T08:45:11.812Z,29.42
2022-08-18T08:50:23.002Z,29.56
2022-08-18T08:55:31.672Z,29.77
2022-08-18T09:00:40.075Z,29.81
2022-08-18T09:06:00.590Z,30.03
2022-08-18T09:11:27.703Z,30.10
2022-08-18T09:17:09.576Z,30.32
2022-08-18T09:22:39.609Z,30.52
2022-08-18T09:28:09.964Z,30.72
2022-08-18T09:33:19.172Z,30.69
2022-08-18T09:38:46.174Z,30.84
2022-08-18T09:44:21.695Z,30.93
2022-08-18T09:49:30.889Z,31.10
2022-08-18T09:54:41.284Z,31.30
2022-08-18T09:59:51.444Z,31.36
2022-08-18T10:05:20.458Z,31.47
2022-08-18T10:16:11.086Z,31.62
2022-08-18T10:21:31.376Z,31.64
2022-08-18T10:26:41.803Z,31.66
2022-08-18T10:32:01.102Z,31.68
2022-08-18T10:37:35.939Z,31.69
2022-08-18T10:42:47.900Z,31.95
2022-08-18T10:48:30.493Z,32.01
2022-08-18T10:53:51.070Z,32.14
2022-08-18T11:10:27.866Z,32.64
2022-08-18T11:15:22.281Z,32.73
2022-08-18T11:20:25.820Z,32.89
2022-08-18T11:25:38.327Z,32.98
2022-08-18T11:30:46.651Z,33.31
2022-08-18T11:35:57.952Z,33.67
2022-08-18T11:41:22.801Z,33.77
2022-08-18T11:46:33.581Z,33.77
2022-08-18T11:51:43.932Z,33.70
2022-08-18T11:56:49.696Z,33.78
2022-08-18T12:01:59.075Z,34.00
2022-08-18T12:07:10.166Z,33.99
2022-08-18T12:12:22.765Z,33.96
2022-08-18T12:17:31.503Z,34.20
2022-08-18T12:22:39.920Z,34.36
2022-08-18T12:27:46.036Z,34.33
2022-08-18T12:32:55.911Z,34.28
2022-08-18T12:38:08.275Z,34.29
2022-08-18T12:43:07.968Z,34.28
2022-08-18T12:48:13.719Z,34.11
2022-08-18T12:53:29.862Z,34.17
2022-08-18T12:58:29.028Z,34.02
2022-08-18T13:03:37.003Z,34.10
2022-08-18T13:08:50.120Z,34.02
2022-08-18T13:13:53.104Z,34.25
2022-08-18T13:18:58.963Z,34.22
2022-08-18T13:24:05.317Z,34.35
2022-08-18T13:29:13.343Z,34.25
2022-08-18T13:34:20.620Z,34.17
2022-08-18T13:39:33.893Z,33.91
2022-08-18T13:44:36.248Z,33.65
2022-08-18T13:49:41.775Z,33.44
2022-08-18T13:54:53.392Z,33.22
2022-08-18T13:59:56.587Z,32.85
2022-08-18T14:05:02.468Z,32.45
2022-08-18T14:10:13.280Z,32.22
2022-08-18T14:15:17.568Z,31.95
2022-08-18T14:20:48.391Z,31.68
2022-08-18T14:26:07.417Z,31.15
2022-08-18T14:31:13.401Z,31.05
2022-08-18T14:36:29.953Z,30.83
2022-08-18T14:41:28.921Z,30.59
2022-08-18T14:46:36.217Z,30.51
2022-08-18T14:51:44.232Z,30.25
2022-08-18T14:56:50.722Z,30.05
2022-08-18T15:01:56.792Z,29.98
2022-08-18T15:07:02.799Z,29.75
2022-08-18T15:12:09.069Z,29.62
2022-08-18T15:17:16.352Z,29.52
2022-08-18T15:22:40.147Z,29.48
2022-08-18T15:27:45.711Z,29.40
2022-08-18T15:32:52.011Z,29.09
2022-08-18T15:37:57.986Z,28.94
2022-08-18T15:43:09.629Z,28.74
2022-08-18T15:48:15.561Z,28.38
2022-08-18T15:53:25.497Z,28.15
2022-08-18T15:58:32.852Z,27.96
2022-08-18T16:03:38.633Z,27.77
2022-08-18T16:08:44.844Z,27.63
2022-08-18T16:13:51.523Z,27.30
2022-08-18T16:18:57.770Z,26.99
2022-08-18T16:24:03.480Z,26.85
2022-08-18T16:29:09.550Z,26.68
2022-08-18T16:34:15.493Z,26.55
2022-08-18T16:39:21.247Z,26.35
2022-08-18T16:44:30.112Z,26.09
2022-08-18T16:49:36.603Z,26.00
2022-08-18T16:54:42.863Z,25.79
2022-08-18T17:00:06.455Z,25.40
2022-08-18T17:05:12.551Z,25.26
2022-08-18T17:10:18.188Z,25.12
2022-08-18T17:15:25.385Z,24.30
2022-08-18T17:20:31.673Z,24.56
2022-08-18T17:25:38.488Z,24.35
2022-08-18T17:30:48.817Z,24.04
2022-08-18T17:35:55.066Z,23.21
2022-08-18T17:41:02.358Z,22.23
2022-08-18T17:46:26.730Z,21.94
2022-08-18T17:51:55.107Z,21.78
2022-08-18T17:57:01.677Z,23.09
2022-08-18T18:02:18.370Z,22.54
2022-08-18T18:07:40.074Z,22.52
2022-08-18T18:12:46.641Z,22.51
2022-08-18T18:17:52.354Z,22.37
2022-08-18T18:22:59.752Z,22.30
2022-08-18T18:28:05.316Z,22.33
2022-08-18T18:33:18.479Z,22.49
2022-08-18T18:38:38.843Z,22.55
2022-08-18T18:43:47.127Z,22.60
2022-08-18T18:49:09.261Z,22.59
2022-08-18T18:54:35.969Z,22.62
2022-08-18T19:00:21.188Z,22.71
2022-08-18T19:05:34.459Z,22.71
2022-08-18T19:10:45.888Z,22.74
2022-08-18T19:15:54.120Z,22.79
2022-08-18T19:22:01.948Z,22.84
2022-08-18T19:26:15.769Z,22.73
2022-08-18T19:31:39.064Z,22.73
2022-08-18T19:36:53.207Z,22.66
2022-08-18T19:42:30.617Z,22.60
2022-08-18T19:47:40.934Z,22.67
2022-08-18T19:53:05.063Z,22.85
2022-08-18T19:58:25.333Z,22.82
2022-08-18T20:03:36.508Z,22.67
2022-08-18T20:09:02.255Z,22.70
2022-08-18T20:14:11.639Z,22.67
2022-08-18T20:19:45.815Z,22.68
2022-08-18T20:24:54.313Z,22.65
2022-08-18T20:30:22.314Z,22.70
2022-08-18T20:35:32.318Z,22.71
2022-08-18T20:40:40.813Z,22.72
2022-08-18T20:45:47.196Z,22.72
2022-08-18T20:50:57.407Z,22.73
2022-08-18T20:56:32.429Z,22.79
2022-08-18T21:01:36.290Z,22.79
2022-08-18T21:06:44.723Z,22.82
2022-08-18T21:11:51.209Z,22.79
2022-08-18T21:16:58.106Z,22.78
2022-08-18T21:22:05.115Z,22.76
2022-08-18T21:27:26.364Z,22.73
2022-08-18T21:32:37.972Z,22.68
2022-08-18T21:37:43.526Z,22.64
2022-08-18T21:42:49.172Z,22.67
2022-08-18T21:47:57.548Z,22.61
2022-08-18T21:53:16.272Z,22.60
2022-08-18T21:58:44.708Z,22.53
2022-08-18T22:04:23.623Z,22.42
2022-08-18T22:09:49.855Z,22.38
2022-08-18T22:14:58.817Z,22.32
2022-08-18T22:20:40.716Z,22.29
2022-08-18T22:25:46.275Z,22.36
2022-08-18T22:30:51.869Z,22.41
2022-08-18T22:35:58.231Z,22.48
2022-08-18T22:41:04.244Z,22.50
2022-08-18T22:46:11.324Z,22.57
2022-08-18T22:51:18.314Z,22.57
2022-08-18T22:56:34.367Z,22.63
2022-08-18T23:01:33.335Z,22.72
2022-08-18T23:06:39.113Z,22.73
2022-08-18T23:11:44.678Z,22.73
2022-08-18T23:16:50.335Z,22.87
2022-08-18T23:21:56.315Z,22.98
2022-08-18T23:27:02.103Z,23.08
2022-08-18T23:32:08.061Z,23.12
2022-08-18T23:37:13.727Z,23.04
2022-08-18T23:42:19.288Z,23.05
2022-08-18T23:47:26.895Z,23.04
2022-08-18T23:52:32.363Z,23.05
2022-08-18T23:57:38.343Z,23.04
